Pilot No. 4 — WDA5463 — position and weather

sailwx.info

Track history (hours):
 
Tides and Currents Weather Stations Pressure Air Temp Water Temp Dewpoint Dewpoint Depression Visibility Wind Speed Wind Dir Waves Ship Positions

Pilot No. 4

Owner: P E P Inc, FORT LAUDERDALE, FL. More information available from US FCC via Universal Licensing System and Coast Guard Vessel Documentation Center.

Last reported at 2018-Jun-25 14:59 UTC. Time now 2018-Jun-25 19:46 UTC.
Position N 26°06' W 080°07'.

MMSI: 495270931.

Date/timePositionNaut miles runAvg speedWind from/ knotsBaromVisibWave heightAir tempDewpointWater temp
2018-Jun-25 14:59N 26°06' W 080°07'1 2.3
2018-Jun-25 14:30N 26°05' W 080°07'1 2.5
2018-Jun-25 14:01N 26°06' W 080°06'2 3.9
2018-Jun-25 13:30N 26°04' W 080°07'2 4.0
2018-Jun-25 13:00N 26°06' W 080°05'2 3.0
2018-Jun-25 12:30N 26°06' W 080°07'1 2.6
2018-Jun-25 12:00N 26°04' W 080°07'2 3.7
2018-Jun-25 11:30N 26°06' W 080°06'2 0.1
2018-Jun-24 14:48N 26°06' W 080°07'2 5.7
2018-Jun-24 14:30N 26°05' W 080°07'0 0.4
2018-Jun-24 14:00N 26°04' W 080°07'0 0.2
2018-Jun-24 13:30N 26°04' W 080°07'2 4.7
2018-Jun-24 13:00N 26°06' W 080°05'2 3.6
2018-Jun-24 12:30N 26°05' W 080°07'511.1
2018-Jun-24 12:00N 26°07' W 080°01'611.1
2018-Jun-24 11:30N 26°06' W 080°07'0 0.0
2018-Jun-22 15:33N 26°06' W 080°07'0 4.4
2018-Jun-22 15:31N 26°06' W 080°07'2 4.4
2018-Jun-22 15:01N 26°06' W 080°05'2 4.2
2018-Jun-22 14:30N 26°05' W 080°07'2 4.0
2018-Jun-22 14:01N 26°05' W 080°05'2 4.5
2018-Jun-22 13:30N 26°05' W 080°07'0 0.4
2018-Jun-22 13:00N 26°05' W 080°07'1 1.7
2018-Jun-22 12:31N 26°06' W 080°06'2 3.7
2018-Jun-22 12:00N 26°06' W 080°04'3 5.2
2018-Jun-22 11:31N 26°05' W 080°07'  
2018-Jun-20 01:53N 26°06' W 080°07'3 7.2
2018-Jun-20 01:30N 26°06' W 080°04'3 5.1
2018-Jun-20 01:00N 26°05' W 080°07'1 2.3
2018-Jun-20 00:30N 26°05' W 080°06'1 2.3
2018-Jun-20 00:00N 26°05' W 080°07'1 0.2
2018-Jun-19 19:08N 26°06' W 080°07'0 3.8
2018-Jun-19 19:00N 26°06' W 080°07'0 0.9
2018-Jun-19 18:30N 26°05' W 080°07'0 0.3
2018-Jun-19 18:00N 26°05' W 080°07'0 0.5
2018-Jun-19 17:31N 26°05' W 080°07'4 7.4
2018-Jun-19 17:00N 26°06' W 080°03'4 7.8
2018-Jun-19 16:30N 26°06' W 080°07'1 1.4
2018-Jun-19 16:00N 26°05' W 080°07'510.1
2018-Jun-19 15:30N 26°05' W 080°01'510.4
2018-Jun-19 15:01N 26°04' W 080°07'2 3.7
2018-Jun-19 14:30N 26°06' W 080°05'2 0.8
2018-Jun-19 12:15N 26°06' W 080°07'2 7.4
2018-Jun-19 12:00N 26°06' W 080°05'1 1.6
2018-Jun-19 11:30N 26°06' W 080°05'2 0.1
2018-Jun-18 19:16N 26°06' W 080°07'0 1.2
2018-Jun-18 18:59N 26°06' W 080°07'1 2.7
2018-Jun-18 18:30N 26°06' W 080°06'1 2.1
2018-Jun-18 18:00N 26°05' W 080°07'2 3.9
2018-Jun-18 17:30N 26°06' W 080°05'1 1.7
2018-Jun-18 17:00N 26°06' W 080°04'3 6.3
2018-Jun-18 16:30N 26°04' W 080°07'1 2.5
2018-Jun-18 16:00N 26°06' W 080°07'1 0.6
2018-Jun-18 14:47N 26°06' W 080°07'311.9
2018-Jun-18 14:30N 26°06' W 080°04'3 6.0
2018-Jun-18 14:00N 26°05' W 080°07'2 1.0
2018-Jun-18 12:21N 26°06' W 080°07'412.6
2018-Jun-18 12:00N 26°06' W 080°03'4 8.3
2018-Jun-18 11:30N 26°04' W 080°07'1 2.5
2018-Jun-18 11:00N 26°06' W 080°07'0 0.0
2018-Jun-17 19:01N 26°06' W 080°07'0 5.7
2018-Jun-17 19:00N 26°06' W 080°07'1 1.9
2018-Jun-17 18:30N 26°06' W 080°06'1 1.4
2018-Jun-17 18:00N 26°06' W 080°06'1 2.9
2018-Jun-17 17:30N 26°05' W 080°07'0 0.7
2018-Jun-17 17:00N 26°05' W 080°07'1 2.1
2018-Jun-17 16:30N 26°06' W 080°07'0 0.3
2018-Jun-17 15:54N 26°06' W 080°07'1 3.7
2018-Jun-17 15:30N 26°06' W 080°06'1 2.6
2018-Jun-17 15:00N 26°05' W 080°07'1 1.3
2018-Jun-17 14:30N 26°05' W 080°07'4 8.2
2018-Jun-17 14:00N 26°05' W 080°02'1 1.7
2018-Jun-17 13:30N 26°06' W 080°03'2 4.5
2018-Jun-17 13:00N 26°06' W 080°06'1 2.5
2018-Jun-17 12:30N 26°06' W 080°07'0 0.1
2018-Jun-17 12:00N 26°06' W 080°07'1 0.0
2018-Jun-16 21:59N 26°06' W 080°07'2 3.3
2018-Jun-16 21:30N 26°06' W 080°06'2 3.4
2018-Jun-16 21:00N 26°04' W 080°07'2 3.4
2018-Jun-16 20:30N 26°06' W 080°06'2 3.1
2018-Jun-16 20:00N 26°05' W 080°07'2 0.6
2018-Jun-16 17:18N 26°06' W 080°07'2 6.4
2018-Jun-16 17:00N 26°06' W 080°05'1 1.8
2018-Jun-16 16:30N 26°06' W 080°06'1 1.3
2018-Jun-16 16:00N 26°06' W 080°07'1 1.1
2018-Jun-16 15:30N 26°06' W 080°06'1 1.1
2018-Jun-16 15:00N 26°06' W 080°07'2 3.9
2018-Jun-16 14:30N 26°06' W 080°05'0 0.4
2018-Jun-16 14:00N 26°06' W 080°05'0 0.7
2018-Jun-16 13:31N 26°06' W 080°05'1 2.5
2018-Jun-16 13:00N 26°05' W 080°07'1 1.3
2018-Jun-16 12:30N 26°05' W 080°07'0 0.2
2018-Jun-16 12:00N 26°05' W 080°07'1 0.1
2018-Jun-15 19:16N 26°06' W 080°07'2 6.1
2018-Jun-15 19:00N 26°06' W 080°05'2 0.8
2018-Jun-15 16:46N 26°06' W 080°07'311.6
2018-Jun-15 16:30N 26°06' W 080°04'3 5.8
2018-Jun-15 16:00N 26°04' W 080°07'  
Track history (hours):
 
Tides and Currents Weather Stations Pressure Air Temp Water Temp Dewpoint Dewpoint Depression Visibility Wind Speed Wind Dir Waves Ship Positions

Pilot No. 4

Owner: P E P Inc, FORT LAUDERDALE, FL. More information available from US FCC via Universal Licensing System and Coast Guard Vessel Documentation Center.

Last reported at 2018-Jun-25 14:59 UTC. Time now 2018-Jun-25 19:46 UTC.
Position N 26°06' W 080°07'.

MMSI: 495270931.

Date/timePositionNaut miles runAvg speedWind from/ knotsBaromVisibWave heightAir tempDewpointWater temp
2018-Jun-25 14:59N 26°06' W 080°07'1 2.3
2018-Jun-25 14:30N 26°05' W 080°07'1 2.5
2018-Jun-25 14:01N 26°06' W 080°06'2 3.9
2018-Jun-25 13:30N 26°04' W 080°07'2 4.0
2018-Jun-25 13:00N 26°06' W 080°05'2 3.0
2018-Jun-25 12:30N 26°06' W 080°07'1 2.6
2018-Jun-25 12:00N 26°04' W 080°07'2 3.7
2018-Jun-25 11:30N 26°06' W 080°06'2 0.1
2018-Jun-24 14:48N 26°06' W 080°07'2 5.7
2018-Jun-24 14:30N 26°05' W 080°07'0 0.4
2018-Jun-24 14:00N 26°04' W 080°07'0 0.2
2018-Jun-24 13:30N 26°04' W 080°07'2 4.7
2018-Jun-24 13:00N 26°06' W 080°05'2 3.6
2018-Jun-24 12:30N 26°05' W 080°07'511.1
2018-Jun-24 12:00N 26°07' W 080°01'611.1
2018-Jun-24 11:30N 26°06' W 080°07'0 0.0
2018-Jun-22 15:33N 26°06' W 080°07'0 4.4
2018-Jun-22 15:31N 26°06' W 080°07'2 4.4
2018-Jun-22 15:01N 26°06' W 080°05'2 4.2
2018-Jun-22 14:30N 26°05' W 080°07'2 4.0
2018-Jun-22 14:01N 26°05' W 080°05'2 4.5
2018-Jun-22 13:30N 26°05' W 080°07'0 0.4
2018-Jun-22 13:00N 26°05' W 080°07'1 1.7
2018-Jun-22 12:31N 26°06' W 080°06'2 3.7
2018-Jun-22 12:00N 26°06' W 080°04'3 5.2
2018-Jun-22 11:31N 26°05' W 080°07'  
2018-Jun-20 01:53N 26°06' W 080°07'3 7.2
2018-Jun-20 01:30N 26°06' W 080°04'3 5.1
2018-Jun-20 01:00N 26°05' W 080°07'1 2.3
2018-Jun-20 00:30N 26°05' W 080°06'1 2.3
2018-Jun-20 00:00N 26°05' W 080°07'1 0.2
2018-Jun-19 19:08N 26°06' W 080°07'0 3.8
2018-Jun-19 19:00N 26°06' W 080°07'0 0.9
2018-Jun-19 18:30N 26°05' W 080°07'0 0.3
2018-Jun-19 18:00N 26°05' W 080°07'0 0.5
2018-Jun-19 17:31N 26°05' W 080°07'4 7.4
2018-Jun-19 17:00N 26°06' W 080°03'4 7.8
2018-Jun-19 16:30N 26°06' W 080°07'1 1.4
2018-Jun-19 16:00N 26°05' W 080°07'510.1
2018-Jun-19 15:30N 26°05' W 080°01'510.4
2018-Jun-19 15:01N 26°04' W 080°07'2 3.7
2018-Jun-19 14:30N 26°06' W 080°05'2 0.8
2018-Jun-19 12:15N 26°06' W 080°07'2 7.4
2018-Jun-19 12:00N 26°06' W 080°05'1 1.6
2018-Jun-19 11:30N 26°06' W 080°05'2 0.1
2018-Jun-18 19:16N 26°06' W 080°07'0 1.2
2018-Jun-18 18:59N 26°06' W 080°07'1 2.7
2018-Jun-18 18:30N 26°06' W 080°06'1 2.1
2018-Jun-18 18:00N 26°05' W 080°07'2 3.9
2018-Jun-18 17:30N 26°06' W 080°05'1 1.7
2018-Jun-18 17:00N 26°06' W 080°04'3 6.3
2018-Jun-18 16:30N 26°04' W 080°07'1 2.5
2018-Jun-18 16:00N 26°06' W 080°07'1 0.6
2018-Jun-18 14:47N 26°06' W 080°07'311.9
2018-Jun-18 14:30N 26°06' W 080°04'3 6.0
2018-Jun-18 14:00N 26°05' W 080°07'2 1.0
2018-Jun-18 12:21N 26°06' W 080°07'412.6
2018-Jun-18 12:00N 26°06' W 080°03'4 8.3
2018-Jun-18 11:30N 26°04' W 080°07'1 2.5
2018-Jun-18 11:00N 26°06' W 080°07'0 0.0
2018-Jun-17 19:01N 26°06' W 080°07'0 5.7
2018-Jun-17 19:00N 26°06' W 080°07'1 1.9
2018-Jun-17 18:30N 26°06' W 080°06'1 1.4
2018-Jun-17 18:00N 26°06' W 080°06'1 2.9
2018-Jun-17 17:30N 26°05' W 080°07'0 0.7
2018-Jun-17 17:00N 26°05' W 080°07'1 2.1
2018-Jun-17 16:30N 26°06' W 080°07'0 0.3
2018-Jun-17 15:54N 26°06' W 080°07'1 3.7
2018-Jun-17 15:30N 26°06' W 080°06'1 2.6
2018-Jun-17 15:00N 26°05' W 080°07'1 1.3
2018-Jun-17 14:30N 26°05' W 080°07'4 8.2
2018-Jun-17 14:00N 26°05' W 080°02'1 1.7
2018-Jun-17 13:30N 26°06' W 080°03'2 4.5
2018-Jun-17 13:00N 26°06' W 080°06'1 2.5
2018-Jun-17 12:30N 26°06' W 080°07'0 0.1
2018-Jun-17 12:00N 26°06' W 080°07'1 0.0
2018-Jun-16 21:59N 26°06' W 080°07'2 3.3
2018-Jun-16 21:30N 26°06' W 080°06'2 3.4
2018-Jun-16 21:00N 26°04' W 080°07'2 3.4
2018-Jun-16 20:30N 26°06' W 080°06'2 3.1
2018-Jun-16 20:00N 26°05' W 080°07'2 0.6
2018-Jun-16 17:18N 26°06' W 080°07'2 6.4
2018-Jun-16 17:00N 26°06' W 080°05'1 1.8
2018-Jun-16 16:30N 26°06' W 080°06'1 1.3
2018-Jun-16 16:00N 26°06' W 080°07'1 1.1
2018-Jun-16 15:30N 26°06' W 080°06'1 1.1
2018-Jun-16 15:00N 26°06' W 080°07'2 3.9
2018-Jun-16 14:30N 26°06' W 080°05'0 0.4
2018-Jun-16 14:00N 26°06' W 080°05'0 0.7
2018-Jun-16 13:31N 26°06' W 080°05'1 2.5
2018-Jun-16 13:00N 26°05' W 080°07'1 1.3
2018-Jun-16 12:30N 26°05' W 080°07'0 0.2
2018-Jun-16 12:00N 26°05' W 080°07'1 0.1
2018-Jun-15 19:16N 26°06' W 080°07'2 6.1
2018-Jun-15 19:00N 26°06' W 080°05'2 0.8
2018-Jun-15 16:46N 26°06' W 080°07'311.6
2018-Jun-15 16:30N 26°06' W 080°04'3 5.8
2018-Jun-15 16:00N 26°04' W 080°07'  

Dump ship's entire track history